createdAt,value
2018-06-22T00:01:47.632Z,41.20
2018-06-22T00:04:15.801Z,41.10
2018-06-22T00:06:43.968Z,41.50
2018-06-22T00:09:12.150Z,41.40
2018-06-22T00:11:40.249Z,41.60
2018-06-22T00:14:08.783Z,42.00
2018-06-22T00:16:37.073Z,41.80
2018-06-22T00:19:05.256Z,41.90
2018-06-22T00:21:33.488Z,42.20
2018-06-22T00:24:01.667Z,42.30
2018-06-22T00:26:29.855Z,42.90
2018-06-22T00:28:58.045Z,42.80
2018-06-22T00:31:26.368Z,42.90
2018-06-22T00:33:54.572Z,42.60
2018-06-22T00:36:22.672Z,42.40
2018-06-22T00:38:50.787Z,42.20
2018-06-22T00:41:18.932Z,42.30
2018-06-22T00:43:47.050Z,42.70
2018-06-22T00:46:15.279Z,43.60
2018-06-22T00:48:43.504Z,43.60
2018-06-22T00:51:11.590Z,44.20
2018-06-22T00:53:56.917Z,44.30
2018-06-22T00:56:24.983Z,44.70
2018-06-22T00:58:53.166Z,45.10
2018-06-22T01:01:21.382Z,45.30
2018-06-22T01:03:49.499Z,45.80
2018-06-22T01:06:17.707Z,45.80
2018-06-22T01:08:45.855Z,46.10
2018-06-22T01:11:13.988Z,46.10
2018-06-22T01:13:42.116Z,46.30
2018-06-22T01:16:10.268Z,46.40
2018-06-22T01:18:38.578Z,45.90
2018-06-22T01:21:06.750Z,46.20
2018-06-22T01:23:34.910Z,45.70
2018-06-22T01:26:03.016Z,46.10
2018-06-22T01:28:31.189Z,46.50
2018-06-22T01:30:59.370Z,46.50
2018-06-22T01:33:27.600Z,47.30
2018-06-22T01:35:55.865Z,47.20
2018-06-22T01:38:23.998Z,47.70
2018-06-22T01:43:20.208Z,49.10
2018-06-22T01:45:48.390Z,48.40
2018-06-22T01:48:16.550Z,48.00
2018-06-22T01:50:44.765Z,48.00
2018-06-22T01:53:12.976Z,48.40
2018-06-22T01:55:41.165Z,48.30
2018-06-22T01:58:09.402Z,47.70
2018-06-22T02:00:37.560Z,47.70
2018-06-22T02:05:33.821Z,48.50
2018-06-22T02:08:01.920Z,48.40
2018-06-22T02:10:31.055Z,47.90
2018-06-22T02:12:59.278Z,48.20
2018-06-22T02:15:27.626Z,48.20
2018-06-22T02:17:55.748Z,48.70
2018-06-22T02:20:23.923Z,49.20
2018-06-22T02:22:52.101Z,49.40
2018-06-22T02:25:20.253Z,49.70
2018-06-22T02:27:48.361Z,49.00
2018-06-22T02:30:16.481Z,48.90
2018-06-22T02:32:45.295Z,48.70
2018-06-22T02:35:13.468Z,49.70
2018-06-22T02:37:41.648Z,47.90
2018-06-22T02:40:09.824Z,49.10
2018-06-22T02:42:38.088Z,50.10
2018-06-22T02:45:06.210Z,50.00
2018-06-22T02:47:41.005Z,50.00
2018-06-22T02:50:09.239Z,50.40
2018-06-22T02:52:37.430Z,51.00
2018-06-22T02:55:05.680Z,51.60
2018-06-22T02:57:33.919Z,51.60
2018-06-22T03:04:58.272Z,52.00
2018-06-22T03:09:54.453Z,51.50
2018-06-22T03:14:50.707Z,52.50
2018-06-22T03:17:18.843Z,53.00
2018-06-22T03:19:47.016Z,53.50
2018-06-22T03:22:15.157Z,53.20
2018-06-22T03:24:43.308Z,52.60
2018-06-22T03:29:39.505Z,52.70
2018-06-22T03:32:07.694Z,52.00
2018-06-22T03:34:35.846Z,52.00
2018-06-22T03:37:04.974Z,52.00
2018-06-22T03:39:33.219Z,52.40
2018-06-22T03:42:01.387Z,52.30
2018-06-22T03:44:29.568Z,51.60
2018-06-22T03:46:57.792Z,51.90
2018-06-22T03:49:26.013Z,52.30
2018-06-22T03:51:54.227Z,52.70
2018-06-22T03:54:22.379Z,51.90
2018-06-22T03:59:18.652Z,52.40
2018-06-22T04:01:46.792Z,52.20
2018-06-22T04:04:14.908Z,51.80
2018-06-22T04:06:43.019Z,51.50
2018-06-22T04:09:11.264Z,52.00
2018-06-22T04:11:39.490Z,53.20
2018-06-22T04:14:07.688Z,53.40
2018-06-22T04:16:36.144Z,53.20
2018-06-22T04:19:04.320Z,53.00
2018-06-22T04:21:32.755Z,52.80
2018-06-22T04:24:00.972Z,53.40
2018-06-22T04:26:29.152Z,53.40
2018-06-22T04:28:57.551Z,53.20
2018-06-22T04:31:25.721Z,53.10
2018-06-22T04:33:54.565Z,52.80
2018-06-22T04:36:22.824Z,54.00
2018-06-22T04:38:51.099Z,54.60
2018-06-22T04:41:19.337Z,55.50
2018-06-22T04:43:47.476Z,55.40
2018-06-22T04:46:15.622Z,54.30
2018-06-22T04:48:43.855Z,54.50
2018-06-22T04:51:12.105Z,54.40
2018-06-22T04:53:40.269Z,54.40
2018-06-22T04:56:08.431Z,54.30
2018-06-22T04:58:36.541Z,54.40
2018-06-22T05:01:04.814Z,54.00
2018-06-22T05:03:33.026Z,53.20
2018-06-22T05:06:01.224Z,53.00
2018-06-22T05:08:29.361Z,55.60
2018-06-22T05:10:57.539Z,55.20
2018-06-22T05:13:25.713Z,55.70
2018-06-22T05:15:53.891Z,55.90
2018-06-22T05:18:22.096Z,55.10
2018-06-22T05:20:50.243Z,55.70
2018-06-22T05:23:18.467Z,55.90
2018-06-22T05:25:46.700Z,55.40
2018-06-22T05:28:14.884Z,54.00
2018-06-22T05:30:43.056Z,54.10
2018-06-22T05:33:11.233Z,54.00
2018-06-22T05:35:39.415Z,54.00
2018-06-22T05:38:07.617Z,53.80
2018-06-22T05:40:36.653Z,53.60
2018-06-22T05:43:04.852Z,53.60
2018-06-22T05:48:01.124Z,52.30
2018-06-22T05:50:29.361Z,51.60
2018-06-22T05:55:25.640Z,53.40
2018-06-22T05:57:53.829Z,52.80
2018-06-22T06:00:22.099Z,53.00
2018-06-22T06:02:50.337Z,52.30
2018-06-22T06:07:46.617Z,51.50
2018-06-22T06:10:14.814Z,52.30
2018-06-22T06:12:43.054Z,52.00
2018-06-22T06:15:11.188Z,50.80
2018-06-22T06:17:39.397Z,49.90
2018-06-22T06:20:09.761Z,49.20
2018-06-22T06:22:38.109Z,49.90
2018-06-22T06:25:06.234Z,48.50
2018-06-22T06:27:34.753Z,50.00
2018-06-22T06:30:03.025Z,49.40
2018-06-22T06:32:32.023Z,49.80
2018-06-22T06:35:00.272Z,48.70
2018-06-22T06:37:28.492Z,48.80
2018-06-22T06:39:56.706Z,47.90
2018-06-22T06:44:53.017Z,47.70
2018-06-22T06:47:21.355Z,47.20
2018-06-22T06:49:49.487Z,47.80
2018-06-22T06:52:17.673Z,46.80
2018-06-22T06:54:45.842Z,46.70
2018-06-22T06:57:14.047Z,47.20
2018-06-22T06:59:42.208Z,47.20
2018-06-22T07:02:10.406Z,45.70
2018-06-22T07:04:38.627Z,45.60
2018-06-22T07:09:34.889Z,45.60
2018-06-22T07:12:03.030Z,45.60
2018-06-22T07:14:31.282Z,45.90
2018-06-22T07:16:59.536Z,45.60
2018-06-22T07:19:27.800Z,44.80
2018-06-22T07:21:55.928Z,45.60
2018-06-22T07:24:24.164Z,46.10
2018-06-22T07:26:52.376Z,45.80
2018-06-22T07:29:20.543Z,46.50
2018-06-22T07:31:48.708Z,45.10
2018-06-22T07:34:16.958Z,45.10
2018-06-22T07:36:45.102Z,44.80
2018-06-22T07:39:13.326Z,45.60
2018-06-22T07:41:41.567Z,45.50
2018-06-22T07:44:09.782Z,44.90
2018-06-22T07:46:38.167Z,44.60
2018-06-22T07:49:06.446Z,44.50
2018-06-22T07:54:03.019Z,45.20
2018-06-22T07:56:31.549Z,45.20
2018-06-22T07:59:00.017Z,43.70
2018-06-22T08:01:28.208Z,44.50
2018-06-22T08:03:56.406Z,45.80
2018-06-22T08:06:24.637Z,44.80
2018-06-22T08:08:52.905Z,43.30
2018-06-22T08:13:49.263Z,42.80
2018-06-22T08:16:17.569Z,43.00
2018-06-22T08:18:45.784Z,42.40
2018-06-22T08:21:13.981Z,42.80
2018-06-22T08:23:42.241Z,43.60
2018-06-22T08:26:10.477Z,43.90
2018-06-22T08:28:38.657Z,43.20
2018-06-22T08:31:06.948Z,43.60
2018-06-22T08:33:35.215Z,42.70
2018-06-22T08:36:03.428Z,42.40
2018-06-22T08:38:31.603Z,42.10
2018-06-22T08:43:27.848Z,42.30
2018-06-22T08:45:58.288Z,40.90
2018-06-22T08:48:26.617Z,41.50
2018-06-22T08:50:54.725Z,41.50
2018-06-22T08:53:23.061Z,40.50
2018-06-22T08:55:51.339Z,40.70
2018-06-22T08:58:19.528Z,40.70
2018-06-22T09:00:47.773Z,40.60
2018-06-22T09:03:15.942Z,40.40
2018-06-22T09:05:44.179Z,41.60
2018-06-22T09:08:12.435Z,41.00
2018-06-22T09:10:40.622Z,40.20
2018-06-22T09:13:08.868Z,40.10
2018-06-22T09:15:37.012Z,40.30
2018-06-22T09:18:05.314Z,40.50
2018-06-22T09:20:33.517Z,40.50
2018-06-22T09:23:01.694Z,40.30
2018-06-22T09:25:29.919Z,40.20
2018-06-22T09:27:58.228Z,40.00
2018-06-22T09:30:26.402Z,40.10
2018-06-22T09:32:54.651Z,40.30
2018-06-22T09:35:22.807Z,39.20
2018-06-22T09:37:50.992Z,40.10
2018-06-22T09:40:19.249Z,40.30
2018-06-22T09:42:47.587Z,40.60
2018-06-22T09:45:15.727Z,40.20
2018-06-22T09:47:43.993Z,40.70
2018-06-22T09:50:12.231Z,40.70
2018-06-22T09:52:40.464Z,41.50
2018-06-22T09:55:08.746Z,42.30
2018-06-22T09:57:37.060Z,40.60
2018-06-22T10:00:05.479Z,40.00
2018-06-22T10:02:33.680Z,40.10
2018-06-22T10:05:01.885Z,39.80
2018-06-22T10:09:58.181Z,39.40
2018-06-22T10:12:26.888Z,39.20
2018-06-22T10:14:55.223Z,40.50
2018-06-22T10:17:23.594Z,40.90
2018-06-22T10:19:51.737Z,40.80
2018-06-22T10:22:19.854Z,40.40
2018-06-22T10:24:48.112Z,40.90
2018-06-22T10:27:16.415Z,40.40
2018-06-22T10:29:44.684Z,40.50
2018-06-22T10:32:13.011Z,40.50
2018-06-22T10:34:41.179Z,40.70
2018-06-22T10:37:09.343Z,38.60
2018-06-22T10:42:06.728Z,40.40
2018-06-22T10:44:34.924Z,39.80
2018-06-22T10:47:03.297Z,40.50
2018-06-22T10:49:31.559Z,40.30
2018-06-22T10:51:59.831Z,40.60
2018-06-22T10:54:28.159Z,40.80
2018-06-22T10:56:56.393Z,40.00
2018-06-22T10:59:24.734Z,39.40
2018-06-22T11:01:52.960Z,39.10
2018-06-22T11:04:21.215Z,39.30
2018-06-22T11:06:49.499Z,40.80
2018-06-22T11:09:17.715Z,40.00
2018-06-22T11:11:45.908Z,39.30
2018-06-22T11:16:42.349Z,39.60
2018-06-22T11:19:10.512Z,39.50
2018-06-22T11:21:38.819Z,40.20
2018-06-22T11:24:07.080Z,40.50
2018-06-22T11:29:03.433Z,40.50
2018-06-22T11:31:31.631Z,40.20
2018-06-22T11:33:59.819Z,39.80
2018-06-22T11:36:28.068Z,39.00
2018-06-22T11:41:24.434Z,38.80
2018-06-22T11:46:20.785Z,38.40
2018-06-22T11:48:49.034Z,38.70
2018-06-22T11:51:17.357Z,38.90
2018-06-22T11:53:45.553Z,37.90
2018-06-22T11:56:13.879Z,38.20
2018-06-22T11:58:42.139Z,38.30
2018-06-22T12:01:10.389Z,38.70
2018-06-22T12:03:38.583Z,38.40
2018-06-22T12:06:07.462Z,38.50
2018-06-22T12:08:36.611Z,38.40
2018-06-22T12:11:05.084Z,38.50
2018-06-22T12:13:33.375Z,38.00
2018-06-22T12:16:01.584Z,39.00
2018-06-22T12:18:29.832Z,38.10
2018-06-22T12:20:57.984Z,39.00
2018-06-22T12:23:26.170Z,39.00
2018-06-22T12:25:54.371Z,38.70
2018-06-22T12:28:22.573Z,37.70
2018-06-22T12:30:50.783Z,37.50
2018-06-22T12:33:19.015Z,37.80
2018-06-22T12:35:47.328Z,38.40
2018-06-22T12:38:15.492Z,39.60
2018-06-22T12:40:43.676Z,39.00
2018-06-22T12:43:11.837Z,39.60
2018-06-22T12:45:40.093Z,39.80
2018-06-22T12:48:08.306Z,39.20
2018-06-22T12:50:36.572Z,39.60
2018-06-22T12:53:04.793Z,39.50
2018-06-22T12:55:33.095Z,39.90
2018-06-22T12:58:01.344Z,39.50
2018-06-22T13:00:29.596Z,39.50
2018-06-22T13:02:57.772Z,39.20
2018-06-22T13:07:54.110Z,38.80
2018-06-22T13:10:22.292Z,39.40
2018-06-22T13:12:50.518Z,40.00
2018-06-22T13:15:18.742Z,40.30
2018-06-22T13:17:46.972Z,39.80
2018-06-22T13:20:15.143Z,38.70
2018-06-22T13:22:43.430Z,38.40
2018-06-22T13:25:11.602Z,39.20
2018-06-22T13:27:39.792Z,39.60
2018-06-22T13:30:08.213Z,40.30
2018-06-22T13:32:36.416Z,40.30
2018-06-22T13:35:04.966Z,39.30
2018-06-22T13:37:33.184Z,39.20
2018-06-22T13:40:01.388Z,39.00
2018-06-22T13:42:29.571Z,39.40
2018-06-22T13:44:57.857Z,39.20
2018-06-22T13:47:26.024Z,39.40
2018-06-22T13:49:54.298Z,39.60
2018-06-22T13:52:22.552Z,39.20
2018-06-22T13:54:50.818Z,40.30
2018-06-22T13:57:19.058Z,40.20
2018-06-22T13:59:47.576Z,40.20
2018-06-22T14:04:49.632Z,39.70
2018-06-22T14:07:17.922Z,40.40
2018-06-22T14:09:46.160Z,40.50
2018-06-22T14:12:14.488Z,40.40
2018-06-22T14:14:42.753Z,39.80
2018-06-22T14:17:11.037Z,39.90
2018-06-22T14:19:39.220Z,39.20
2018-06-22T14:24:35.707Z,39.40
2018-06-22T14:27:04.050Z,38.80
2018-06-22T14:29:32.261Z,37.30
2018-06-22T14:32:00.473Z,37.20
2018-06-22T14:34:28.709Z,37.60
2018-06-22T14:36:56.998Z,37.20
2018-06-22T14:39:25.510Z,37.20
2018-06-22T14:41:53.814Z,37.80
2018-06-22T14:44:22.100Z,38.70
2018-06-22T14:46:50.380Z,37.10
2018-06-22T14:49:18.643Z,36.60
2018-06-22T14:51:49.740Z,36.80
2018-06-22T14:54:23.815Z,36.40
2018-06-22T14:56:57.596Z,36.80
2018-06-22T14:59:31.416Z,36.80
2018-06-22T15:04:09.029Z,36.50
2018-06-22T15:06:42.887Z,36.30
2018-06-22T15:09:11.363Z,36.80
2018-06-22T15:14:08.032Z,36.40
2018-06-22T15:16:36.301Z,35.80
2018-06-22T15:19:04.621Z,36.10
2018-06-22T15:21:33.174Z,37.00
2018-06-22T15:24:01.524Z,35.60
2018-06-22T15:26:29.854Z,35.60
2018-06-22T15:28:58.192Z,35.30
2018-06-22T15:31:26.458Z,35.60
2018-06-22T15:34:00.294Z,35.50
2018-06-22T15:36:34.092Z,35.50
2018-06-22T15:39:08.039Z,34.70
2018-06-22T15:41:41.821Z,35.00
2018-06-22T15:44:15.637Z,36.10
2018-06-22T15:46:50.446Z,35.50
2018-06-22T15:49:24.292Z,35.40
2018-06-22T15:51:58.064Z,35.80
2018-06-22T15:54:31.824Z,35.00
2018-06-22T15:59:28.349Z,35.60
2018-06-22T16:02:04.017Z,35.00
2018-06-22T16:07:00.384Z,35.70
2018-06-22T16:09:28.643Z,35.90
2018-06-22T16:14:35.085Z,37.00
2018-06-22T16:17:08.837Z,36.90
2018-06-22T16:19:42.773Z,37.50
2018-06-22T16:22:16.656Z,37.90
2018-06-22T16:24:50.662Z,37.60
2018-06-22T16:27:18.913Z,37.60
2018-06-22T16:29:47.111Z,37.70
2018-06-22T16:32:15.360Z,38.60
2018-06-22T16:34:43.533Z,38.40
2018-06-22T16:37:11.725Z,38.50
2018-06-22T16:42:08.223Z,39.10
2018-06-22T16:44:37.389Z,39.20
2018-06-22T16:47:05.609Z,39.50
2018-06-22T16:49:33.881Z,39.40
2018-06-22T16:52:02.120Z,39.70
2018-06-22T16:54:30.339Z,38.80
2018-06-22T16:56:58.551Z,37.00
2018-06-22T16:59:26.791Z,37.90
2018-06-22T17:01:55.080Z,37.10
2018-06-22T17:04:23.313Z,37.50
2018-06-22T17:06:57.286Z,37.60
2018-06-22T17:09:31.251Z,38.30
2018-06-22T17:12:05.079Z,38.60
2018-06-22T17:14:38.796Z,39.50
2018-06-22T17:17:12.505Z,39.50
2018-06-22T17:19:40.770Z,40.00
2018-06-22T17:22:09.016Z,40.20
2018-06-22T17:24:37.370Z,40.40
2018-06-22T17:27:06.069Z,40.40
2018-06-22T17:29:34.382Z,40.80
2018-06-22T17:32:02.708Z,41.10
2018-06-22T17:34:30.926Z,41.40
2018-06-22T17:36:59.207Z,41.70
2018-06-22T17:39:27.407Z,41.80
2018-06-22T17:41:55.680Z,41.60
2018-06-22T17:44:24.024Z,40.90
2018-06-22T17:46:52.307Z,40.90
2018-06-22T17:49:20.557Z,40.90
2018-06-22T17:54:16.951Z,41.20
2018-06-22T17:56:45.157Z,40.50
2018-06-22T17:59:18.970Z,40.30
2018-06-22T18:01:52.923Z,39.70
2018-06-22T18:04:26.864Z,39.50
2018-06-22T18:07:00.605Z,39.40
2018-06-22T18:09:34.598Z,38.50
2018-06-22T18:12:08.369Z,37.60
2018-06-22T18:14:36.571Z,37.60
2018-06-22T18:17:04.860Z,38.20
2018-06-22T18:19:33.077Z,38.10
2018-06-22T18:22:01.289Z,38.00
2018-06-22T18:24:29.566Z,38.30
2018-06-22T18:26:57.857Z,37.90
2018-06-22T18:29:26.159Z,38.10
2018-06-22T18:31:54.382Z,38.30
2018-06-22T18:34:22.676Z,38.30
2018-06-22T18:36:50.880Z,38.30
2018-06-22T18:39:19.165Z,38.30
2018-06-22T18:41:47.421Z,38.50
2018-06-22T18:44:16.637Z,38.70
2018-06-22T18:46:45.360Z,38.50
2018-06-22T18:49:13.651Z,38.90
2018-06-22T18:51:41.880Z,39.50
2018-06-22T18:54:15.745Z,39.40
2018-06-22T18:56:49.628Z,39.80
2018-06-22T18:59:52.596Z,39.60
2018-06-22T19:02:26.493Z,40.10
2018-06-22T19:04:54.821Z,39.80
2018-06-22T19:07:23.061Z,40.10
2018-06-22T19:09:51.237Z,40.70
2018-06-22T19:12:19.484Z,40.40
2018-06-22T19:14:47.713Z,40.80
2018-06-22T19:19:44.074Z,40.90
2018-06-22T19:24:40.445Z,40.60
2018-06-22T19:27:08.719Z,40.70
2018-06-22T19:29:37.078Z,40.50
2018-06-22T19:32:05.614Z,40.60
2018-06-22T19:34:39.304Z,40.40
2018-06-22T19:37:07.456Z,41.00
2018-06-22T19:39:35.752Z,41.30
2018-06-22T19:42:04.120Z,41.30
2018-06-22T19:44:37.985Z,42.00
2018-06-22T19:47:12.190Z,41.60
2018-06-22T19:49:45.725Z,41.90
2018-06-22T19:52:19.564Z,41.80
2018-06-22T19:54:47.870Z,42.10
2018-06-22T19:57:16.155Z,42.00
2018-06-22T19:59:44.421Z,42.30
2018-06-22T20:02:12.652Z,43.00
2018-06-22T20:04:40.949Z,44.90
2018-06-22T20:07:09.204Z,45.70
2018-06-22T20:09:37.497Z,45.30
2018-06-22T20:12:05.749Z,45.70
2018-06-22T20:14:34.079Z,45.60
2018-06-22T20:17:02.320Z,45.30
2018-06-22T20:19:30.608Z,45.30
2018-06-22T20:21:59.017Z,45.70
2018-06-22T20:27:01.030Z,46.20
2018-06-22T20:29:29.277Z,46.40
2018-06-22T20:31:57.525Z,46.40
2018-06-22T20:34:31.221Z,46.40
2018-06-22T20:39:38.593Z,46.50
2018-06-22T20:42:12.526Z,47.00
2018-06-22T20:44:46.312Z,47.10
2018-06-22T20:47:20.102Z,47.60
2018-06-22T20:49:53.826Z,48.20
2018-06-22T20:52:22.088Z,48.30
2018-06-22T20:54:50.307Z,48.60
2018-06-22T20:57:18.553Z,48.80
2018-06-22T20:59:46.730Z,49.10
2018-06-22T21:02:14.965Z,49.40
2018-06-22T21:04:43.351Z,49.40
2018-06-22T21:07:11.900Z,49.70
2018-06-22T21:09:40.167Z,49.70
2018-06-22T21:12:08.569Z,49.70
2018-06-22T21:14:36.819Z,49.70
2018-06-22T21:17:05.119Z,50.00
2018-06-22T21:19:33.366Z,50.40
2018-06-22T21:22:07.078Z,50.60
2018-06-22T21:24:35.500Z,50.50
2018-06-22T21:27:09.254Z,50.80
2018-06-22T21:29:43.181Z,50.80
2018-06-22T21:32:16.998Z,50.80
2018-06-22T21:34:50.824Z,51.20
2018-06-22T21:37:25.019Z,51.70
2018-06-22T21:39:53.354Z,51.90
2018-06-22T21:42:22.136Z,52.00
2018-06-22T21:44:50.575Z,52.30
2018-06-22T21:47:18.787Z,52.40
2018-06-22T21:49:47.053Z,52.80
2018-06-22T21:52:15.294Z,53.20
2018-06-22T21:54:43.487Z,53.20
2018-06-22T21:57:11.744Z,53.40
2018-06-22T21:59:40.000Z,53.40
2018-06-22T22:02:08.171Z,53.60
2018-06-22T22:04:36.380Z,53.50
2018-06-22T22:07:04.604Z,53.50
2018-06-22T22:09:38.499Z,53.80
2018-06-22T22:12:06.868Z,54.20
2018-06-22T22:14:34.983Z,54.30
2018-06-22T22:17:03.241Z,54.20
2018-06-22T22:19:31.532Z,54.30
2018-06-22T22:21:59.725Z,54.20
2018-06-22T22:24:28.015Z,54.20
2018-06-22T22:26:56.248Z,54.40
2018-06-22T22:29:24.557Z,54.60
2018-06-22T22:31:52.824Z,54.70
2018-06-22T22:34:21.050Z,54.80
2018-06-22T22:36:49.312Z,54.70
2018-06-22T22:39:17.591Z,55.00
2018-06-22T22:41:45.856Z,55.70
2018-06-22T22:46:42.246Z,56.00
2018-06-22T22:49:10.526Z,55.90
2018-06-22T22:51:38.712Z,55.90
2018-06-22T22:54:06.897Z,56.30
2018-06-22T22:56:35.060Z,56.30
2018-06-22T22:59:03.351Z,56.20
2018-06-22T23:01:31.525Z,56.60
2018-06-22T23:03:59.678Z,56.80
2018-06-22T23:06:27.840Z,56.60
2018-06-22T23:08:56.043Z,57.00
2018-06-22T23:18:49.049Z,57.10
2018-06-22T23:21:17.308Z,57.00
2018-06-22T23:23:45.507Z,57.00
2018-06-22T23:26:13.665Z,56.70
2018-06-22T23:28:41.869Z,57.00
2018-06-22T23:31:10.459Z,56.90
2018-06-22T23:33:38.660Z,57.40
2018-06-22T23:36:06.904Z,57.60
2018-06-22T23:38:35.039Z,57.40
2018-06-22T23:43:35.603Z,56.90
2018-06-22T23:46:03.778Z,56.90
2018-06-22T23:48:31.935Z,57.40
2018-06-22T23:51:00.107Z,57.40
2018-06-22T23:53:28.238Z,57.50
2018-06-22T23:55:56.386Z,58.20
2018-06-22T23:58:24.860Z,58.00
